createdAt,value
2023-07-16T00:02:26.997Z,20.36
2023-07-16T00:04:54.230Z,20.34
2023-07-16T00:07:21.361Z,20.30
2023-07-16T00:09:49.230Z,20.30
2023-07-16T00:12:16.483Z,20.26
2023-07-16T00:14:43.699Z,20.23
2023-07-16T00:17:13.250Z,20.20
2023-07-16T00:19:40.400Z,20.18
2023-07-16T00:22:07.611Z,20.17
2023-07-16T00:24:34.808Z,20.13
2023-07-16T00:27:02.005Z,20.08
2023-07-16T00:29:29.302Z,20.09
2023-07-16T00:31:58.307Z,20.06
2023-07-16T00:34:25.571Z,20.04
2023-07-16T00:36:53.313Z,19.99
2023-07-16T00:39:20.960Z,19.97
2023-07-16T00:41:48.354Z,19.99
2023-07-16T00:44:16.071Z,19.97
2023-07-16T00:46:43.641Z,19.91
2023-07-16T00:49:14.711Z,19.90
2023-07-16T00:51:42.473Z,19.89
2023-07-16T00:54:10.423Z,19.85
2023-07-16T00:56:38.614Z,19.80
2023-07-16T05:25:42.304Z,23.31
2023-07-16T05:37:24.713Z,23.77
2023-07-16T05:39:54.345Z,23.89
2023-07-16T05:50:49.357Z,24.15
2023-07-16T06:09:21.319Z,24.93
2023-07-16T06:11:50.003Z,25.07
2023-07-16T06:14:17.462Z,25.20
2023-07-16T06:16:44.852Z,25.31
2023-07-16T06:19:18.497Z,25.44
2023-07-16T06:21:45.642Z,25.52
2023-07-16T06:24:15.878Z,25.61
2023-07-16T06:26:44.841Z,25.69
2023-07-16T06:29:12.012Z,25.77
2023-07-16T06:31:39.532Z,25.90
2023-07-16T06:34:06.723Z,26.02
2023-07-16T06:36:34.483Z,26.09
2023-07-16T06:39:01.921Z,26.17
2023-07-16T06:41:29.997Z,26.23
2023-07-16T06:43:58.942Z,26.27
2023-07-16T06:46:26.070Z,26.34
2023-07-16T06:48:53.269Z,26.43
2023-07-16T06:51:22.230Z,26.52
2023-07-16T06:53:49.523Z,26.66
2023-07-16T06:56:17.023Z,26.76
2023-07-16T06:58:44.491Z,26.84
2023-07-16T07:01:11.606Z,26.92
2023-07-16T07:03:39.061Z,26.99
2023-07-16T07:06:07.237Z,27.06
2023-07-16T07:08:34.290Z,27.10
2023-07-16T07:11:01.474Z,27.17
2023-07-16T07:13:29.340Z,27.27
2023-07-16T07:15:58.354Z,27.40
2023-07-16T07:18:25.569Z,27.53
2023-07-16T07:20:52.753Z,27.67
2023-07-16T07:23:20.018Z,27.75
2023-07-16T07:25:52.576Z,27.88
2023-07-16T07:28:20.673Z,28.02
2023-07-16T07:30:47.888Z,28.11
2023-07-16T07:33:15.093Z,28.23
2023-07-16T07:35:42.869Z,28.36
2023-07-16T07:38:11.958Z,28.49
2023-07-16T07:40:39.496Z,28.66
2023-07-16T07:43:06.651Z,28.80
2023-07-16T07:45:33.751Z,28.94
2023-07-16T07:48:02.036Z,29.04
2023-07-16T07:50:30.633Z,29.09
2023-07-16T07:52:57.736Z,29.15
2023-07-16T07:55:25.301Z,29.21
2023-07-16T07:57:52.570Z,29.24
2023-07-16T08:00:20.250Z,29.25
2023-07-16T08:02:48.384Z,29.30
2023-07-16T08:05:16.094Z,29.38
2023-07-16T08:07:43.368Z,29.44
2023-07-16T08:10:11.064Z,29.54
2023-07-16T08:12:38.435Z,29.66
2023-07-16T08:15:10.402Z,29.79
2023-07-16T08:17:38.126Z,29.91
2023-07-16T08:20:06.903Z,30.02
2023-07-16T08:22:34.111Z,30.06
2023-07-16T08:25:02.038Z,30.07
2023-07-16T08:27:29.219Z,30.16
2023-07-16T08:29:56.381Z,30.29
2023-07-16T08:32:24.006Z,30.40
2023-07-16T08:34:51.168Z,30.49
2023-07-16T08:37:18.530Z,30.59
2023-07-16T08:39:45.639Z,30.65
2023-07-16T08:42:12.707Z,30.74
2023-07-16T08:44:41.241Z,30.86
2023-07-16T08:47:08.734Z,30.97
2023-07-16T08:49:36.009Z,31.04
2023-07-16T08:52:04.291Z,31.15
2023-07-16T08:54:31.434Z,31.24
2023-07-16T08:56:58.759Z,31.34
2023-07-16T08:59:26.195Z,31.43
2023-07-16T09:01:53.337Z,31.51
2023-07-16T09:04:20.424Z,31.59
2023-07-16T09:06:47.648Z,31.69
2023-07-16T09:09:22.674Z,31.78
2023-07-16T09:11:49.929Z,31.84
2023-07-16T09:14:20.163Z,31.92
2023-07-16T09:16:51.592Z,32.04
2023-07-16T09:19:21.403Z,32.10
2023-07-16T09:21:52.576Z,32.16
2023-07-16T09:24:21.855Z,32.23
2023-07-16T09:26:53.153Z,32.30
2023-07-16T09:29:20.905Z,32.35
2023-07-16T09:32:09.190Z,32.44
2023-07-16T09:34:36.412Z,32.51
2023-07-16T09:37:03.981Z,32.55
2023-07-16T09:39:31.577Z,32.62
2023-07-16T09:41:58.775Z,32.74
2023-07-16T09:44:25.903Z,32.86
2023-07-16T09:46:53.056Z,32.94
2023-07-16T09:49:20.414Z,32.96
2023-07-16T09:51:47.679Z,32.99
2023-07-16T09:54:16.542Z,33.03
2023-07-16T09:56:46.899Z,33.09
2023-07-16T09:59:19.303Z,33.22
2023-07-16T10:01:46.552Z,33.34
2023-07-16T10:04:21.011Z,33.43
2023-07-16T10:06:56.789Z,33.57
2023-07-16T10:09:43.116Z,33.72
2023-07-16T10:12:15.690Z,33.82
2023-07-16T10:14:44.506Z,33.90
2023-07-16T10:17:19.373Z,33.98
2023-07-16T10:20:00.327Z,34.09
2023-07-16T10:22:48.031Z,34.13
2023-07-16T10:25:21.467Z,34.22
2023-07-16T10:27:50.584Z,34.26
2023-07-16T10:30:17.839Z,34.35
2023-07-16T10:32:45.186Z,34.43
2023-07-16T10:35:12.667Z,34.51
2023-07-16T10:37:40.230Z,34.57
2023-07-16T10:40:11.246Z,34.62
2023-07-16T10:42:38.375Z,34.69
2023-07-16T10:45:05.946Z,34.74
2023-07-16T10:47:37.716Z,34.78
2023-07-16T10:50:06.637Z,34.81
2023-07-16T10:52:33.777Z,34.76
2023-07-16T10:55:00.926Z,34.68
2023-07-16T10:57:28.763Z,34.53
2023-07-16T10:59:59.050Z,34.45
2023-07-16T11:02:26.552Z,34.47
2023-07-16T11:04:58.947Z,34.52
2023-07-16T11:07:26.057Z,34.59
2023-07-16T11:09:55.214Z,34.66
2023-07-16T11:12:23.850Z,34.69
2023-07-16T11:14:52.256Z,34.76
2023-07-16T11:17:20.377Z,34.81
2023-07-16T11:19:48.841Z,34.75
2023-07-16T11:22:16.221Z,34.75
2023-07-16T11:24:48.114Z,34.80
2023-07-16T11:27:18.738Z,34.82
2023-07-16T11:29:50.294Z,34.82
2023-07-16T11:32:44.108Z,34.83
2023-07-16T11:35:18.439Z,34.86
2023-07-16T11:37:45.985Z,34.92
2023-07-16T11:40:17.356Z,34.94
2023-07-16T11:42:45.296Z,34.96
2023-07-16T11:45:22.439Z,34.96
2023-07-16T11:47:50.405Z,35.05
2023-07-16T11:50:17.713Z,35.08
2023-07-16T11:52:52.758Z,35.00
2023-07-16T11:55:19.909Z,34.95
2023-07-16T11:57:47.029Z,34.98
2023-07-16T12:00:14.483Z,34.90
2023-07-16T12:02:42.914Z,34.89
2023-07-16T12:05:12.317Z,34.93
2023-07-16T12:07:41.060Z,35.00
2023-07-16T12:10:08.651Z,35.02
2023-07-16T12:12:39.690Z,35.00
2023-07-16T12:15:08.663Z,34.98
2023-07-16T12:17:35.979Z,34.99
2023-07-16T12:20:05.627Z,34.99
2023-07-16T12:22:33.494Z,35.01
2023-07-16T12:25:00.851Z,35.03
2023-07-16T12:27:28.144Z,34.97
2023-07-16T12:29:56.214Z,34.99
2023-07-16T12:32:23.323Z,34.98
2023-07-16T12:34:50.633Z,35.00
2023-07-16T12:37:18.340Z,35.06
2023-07-16T12:39:45.422Z,35.13
2023-07-16T12:42:12.572Z,35.18
2023-07-16T12:44:39.803Z,35.25
2023-07-16T12:47:10.108Z,35.30
2023-07-16T12:49:37.456Z,35.33
2023-07-16T12:52:05.045Z,35.33
2023-07-16T12:54:32.516Z,35.29
2023-07-16T12:56:59.709Z,35.25
2023-07-16T12:59:26.870Z,35.25
2023-07-16T13:01:54.005Z,35.27
2023-07-16T13:04:21.120Z,35.31
2023-07-16T13:06:49.810Z,35.39
2023-07-16T13:09:17.745Z,35.43
2023-07-16T13:11:45.674Z,35.47
2023-07-16T13:14:13.251Z,35.48
2023-07-16T13:16:40.354Z,35.47
2023-07-16T13:19:07.645Z,35.40
2023-07-16T13:21:35.279Z,35.38
2023-07-16T13:24:02.484Z,35.40
2023-07-16T13:26:29.634Z,35.45
2023-07-16T13:28:56.849Z,35.51
2023-07-16T13:31:24.113Z,35.55
2023-07-16T13:33:51.231Z,35.59
2023-07-16T13:36:18.620Z,35.60
2023-07-16T13:38:49.222Z,35.58
2023-07-16T13:41:16.419Z,35.58
2023-07-16T13:43:43.606Z,35.63
2023-07-16T13:46:10.648Z,35.70
2023-07-16T13:48:55.862Z,35.77
2023-07-16T13:51:24.799Z,35.81
2023-07-16T13:53:51.942Z,35.83
2023-07-16T13:56:19.637Z,35.86
2023-07-16T13:58:47.060Z,35.83
2023-07-16T14:01:14.257Z,35.76
2023-07-16T14:03:41.571Z,35.68
2023-07-16T14:06:08.914Z,35.64
2023-07-16T14:08:37.464Z,35.63
2023-07-16T14:11:06.020Z,35.67
2023-07-16T14:13:33.110Z,35.72
2023-07-16T14:16:00.285Z,35.76
2023-07-16T14:18:27.467Z,35.79
2023-07-16T14:20:54.778Z,35.75
2023-07-16T14:23:22.004Z,35.68
2023-07-16T14:25:49.074Z,35.60
2023-07-16T14:28:16.287Z,35.62
2023-07-16T14:30:43.352Z,35.65
2023-07-16T14:33:10.462Z,35.67
2023-07-16T14:35:38.666Z,35.71
2023-07-16T14:38:06.459Z,35.74
2023-07-16T14:40:33.761Z,35.76
2023-07-16T14:43:02.152Z,35.75
2023-07-16T14:45:29.390Z,35.74
2023-07-16T14:47:56.654Z,35.71
2023-07-16T14:50:24.974Z,35.65
2023-07-16T14:52:52.200Z,35.57
2023-07-16T14:55:19.647Z,35.48
2023-07-16T14:57:46.899Z,35.45
2023-07-16T15:00:15.295Z,35.42
2023-07-16T15:02:43.729Z,35.42
2023-07-16T15:05:11.252Z,35.40
2023-07-16T15:07:38.533Z,35.39
2023-07-16T15:10:06.137Z,35.36
2023-07-16T15:12:33.610Z,35.36
2023-07-16T15:15:01.616Z,35.39
2023-07-16T15:17:29.238Z,35.28
2023-07-16T15:19:56.429Z,35.16
2023-07-16T15:22:23.630Z,35.10
2023-07-16T15:24:51.475Z,35.03
2023-07-16T15:27:18.685Z,34.92
2023-07-16T15:29:45.808Z,34.83
2023-07-16T15:32:12.928Z,34.69
2023-07-16T15:34:40.086Z,34.59
2023-07-16T15:37:07.340Z,34.54
2023-07-16T15:39:35.128Z,34.50
2023-07-16T15:42:02.439Z,34.45
2023-07-16T15:44:29.507Z,34.35
2023-07-16T15:46:57.366Z,34.22
2023-07-16T15:49:24.605Z,34.11
2023-07-16T15:51:51.740Z,33.99
2023-07-16T15:54:19.145Z,33.89
2023-07-16T15:56:47.929Z,33.84
2023-07-16T15:59:15.253Z,33.79
2023-07-16T16:01:42.497Z,33.75
2023-07-16T16:04:09.672Z,33.71
2023-07-16T16:06:38.183Z,33.66
2023-07-16T16:09:06.916Z,33.56
2023-07-16T16:11:33.961Z,33.48
2023-07-16T16:14:01.094Z,33.40
2023-07-16T16:16:28.290Z,33.35
2023-07-16T16:18:55.891Z,33.30
2023-07-16T16:21:23.059Z,33.23
2023-07-16T16:23:50.254Z,33.17
2023-07-16T16:26:17.764Z,33.16
2023-07-16T16:28:45.133Z,33.17
2023-07-16T16:31:12.376Z,33.12
2023-07-16T16:33:39.624Z,33.07
2023-07-16T16:36:13.361Z,33.04
2023-07-16T16:38:42.564Z,33.02
2023-07-16T16:41:09.654Z,33.03
2023-07-16T16:43:36.990Z,33.05
2023-07-16T16:46:04.241Z,33.05
2023-07-16T16:48:32.368Z,33.06
2023-07-16T16:51:00.457Z,33.03
2023-07-16T16:53:27.729Z,32.99
2023-07-16T16:55:54.872Z,32.92
2023-07-16T16:58:22.475Z,32.80
2023-07-16T17:00:53.632Z,32.70
2023-07-16T17:03:20.790Z,32.61
2023-07-16T17:05:51.686Z,32.52
2023-07-16T17:08:18.840Z,32.40
2023-07-16T17:10:46.056Z,32.28
2023-07-16T17:13:13.235Z,32.17
2023-07-16T17:15:47.491Z,32.07
2023-07-16T17:18:15.005Z,31.98
2023-07-16T17:20:42.270Z,31.94
2023-07-16T17:23:13.131Z,31.90
2023-07-16T17:25:40.371Z,31.81
2023-07-16T17:28:07.423Z,31.75
2023-07-16T17:30:34.732Z,31.69
2023-07-16T17:33:01.942Z,31.62
2023-07-16T17:35:31.335Z,31.55
2023-07-16T17:37:58.441Z,31.39
2023-07-16T17:40:25.609Z,31.23
2023-07-16T17:42:54.892Z,31.08
2023-07-16T17:45:22.455Z,30.92
2023-07-16T17:47:49.663Z,30.76
2023-07-16T17:50:16.999Z,30.62
2023-07-16T17:52:44.179Z,30.50
2023-07-16T17:55:12.293Z,30.41
2023-07-16T17:57:39.690Z,30.36
2023-07-16T18:00:23.950Z,30.26
2023-07-16T18:02:54.655Z,30.10
2023-07-16T18:05:22.013Z,29.96
2023-07-16T18:07:51.995Z,29.84
2023-07-16T18:10:20.886Z,29.68
2023-07-16T18:12:49.805Z,29.55
2023-07-16T18:15:17.817Z,29.40
2023-07-16T18:17:48.049Z,29.29
2023-07-16T18:20:15.810Z,29.17
2023-07-16T18:22:43.676Z,29.02
2023-07-16T18:25:11.123Z,28.90
2023-07-16T18:27:39.959Z,28.79
2023-07-16T18:30:08.089Z,28.67
2023-07-16T18:32:35.313Z,28.58
2023-07-16T18:35:02.406Z,28.49
2023-07-16T18:37:29.523Z,28.37
2023-07-16T18:39:57.269Z,28.25
2023-07-16T18:42:26.372Z,28.11
2023-07-16T18:44:58.130Z,28.05
2023-07-16T18:47:25.472Z,28.02
2023-07-16T18:49:53.175Z,27.94
2023-07-16T18:52:21.331Z,27.86
2023-07-16T18:54:48.458Z,27.80
2023-07-16T18:57:17.320Z,27.75
2023-07-16T18:59:44.924Z,27.67
2023-07-16T19:02:12.073Z,27.60
2023-07-16T19:04:39.309Z,27.62
2023-07-16T19:07:06.930Z,27.64
2023-07-16T19:09:34.172Z,27.65
2023-07-16T19:12:01.508Z,27.63
2023-07-16T19:14:28.636Z,27.60
2023-07-16T19:16:55.817Z,27.54
2023-07-16T19:19:22.969Z,27.47
2023-07-16T19:21:50.013Z,27.41
2023-07-16T19:24:17.104Z,27.36
2023-07-16T19:26:44.284Z,27.32
2023-07-16T19:29:11.413Z,27.30
2023-07-16T19:31:38.997Z,27.27
2023-07-16T19:34:06.226Z,27.21
2023-07-16T19:36:33.385Z,27.18
2023-07-16T19:39:00.475Z,27.18
2023-07-16T19:41:27.912Z,27.17
2023-07-16T19:43:55.018Z,27.13
2023-07-16T19:46:22.107Z,27.13
2023-07-16T19:48:49.381Z,27.12
2023-07-16T19:51:16.975Z,27.08
2023-07-16T19:53:44.348Z,27.06
2023-07-16T19:56:12.140Z,27.03
2023-07-16T19:58:39.976Z,27.02
2023-07-16T20:01:08.223Z,27.02
2023-07-16T20:03:35.696Z,26.99
2023-07-16T20:06:07.312Z,26.99
2023-07-16T20:08:34.302Z,27.00
2023-07-16T20:11:01.381Z,26.96
2023-07-16T20:13:28.706Z,26.93
2023-07-16T20:15:56.867Z,26.89
2023-07-16T20:18:24.187Z,26.86
2023-07-16T20:20:53.690Z,26.83
2023-07-16T20:23:21.180Z,26.78
2023-07-16T20:25:48.329Z,26.75
2023-07-16T20:28:20.455Z,26.75
2023-07-16T20:30:48.388Z,26.76
2023-07-16T20:33:15.510Z,26.76
2023-07-16T20:35:43.576Z,26.75
2023-07-16T20:38:11.100Z,26.76
2023-07-16T20:40:38.170Z,26.75
2023-07-16T20:43:05.226Z,26.75
2023-07-16T20:45:32.375Z,26.73
2023-07-16T20:48:00.867Z,26.72
2023-07-16T20:50:28.682Z,26.71
2023-07-16T20:52:57.591Z,26.67
2023-07-16T20:55:24.785Z,26.64
2023-07-16T20:57:52.780Z,26.57
2023-07-16T21:00:22.337Z,26.50
2023-07-16T21:02:52.924Z,26.46
2023-07-16T21:05:20.176Z,26.42
2023-07-16T21:07:49.644Z,26.39
2023-07-16T21:10:16.854Z,26.38
2023-07-16T21:12:44.984Z,26.34
2023-07-16T21:15:13.461Z,26.29
2023-07-16T21:17:40.742Z,26.21
2023-07-16T21:20:10.906Z,26.16
2023-07-16T21:22:39.509Z,26.10
2023-07-16T21:25:07.094Z,26.07
2023-07-16T21:27:40.879Z,26.01
2023-07-16T21:30:08.819Z,25.94
2023-07-16T21:32:35.946Z,25.87
2023-07-16T21:35:03.075Z,25.82
2023-07-16T21:37:30.220Z,25.77
2023-07-16T21:39:57.220Z,25.69
2023-07-16T21:42:26.319Z,25.63
2023-07-16T21:44:53.542Z,25.57
2023-07-16T21:47:20.621Z,25.51
2023-07-16T21:49:47.897Z,25.43
2023-07-16T21:52:15.235Z,25.37
2023-07-16T21:54:43.274Z,25.34
2023-07-16T21:57:12.683Z,25.26
2023-07-16T21:59:39.749Z,25.21
2023-07-16T22:02:06.828Z,25.14
2023-07-16T22:04:33.917Z,25.08
2023-07-16T22:07:01.676Z,25.03
2023-07-16T22:09:28.960Z,24.99
2023-07-16T22:11:56.535Z,24.94
2023-07-16T22:14:23.696Z,24.92
2023-07-16T22:16:50.803Z,24.88
2023-07-16T22:19:31.629Z,24.83
2023-07-16T22:22:01.426Z,24.78
2023-07-16T22:24:29.394Z,24.74
2023-07-16T22:26:57.499Z,24.71
2023-07-16T22:29:26.330Z,24.68
2023-07-16T22:31:53.436Z,24.64
2023-07-16T22:34:21.704Z,24.63
2023-07-16T22:36:48.996Z,24.60
2023-07-16T22:39:16.089Z,24.58
2023-07-16T22:41:43.188Z,24.56
2023-07-16T22:44:10.209Z,24.56
2023-07-16T22:46:38.385Z,24.57
2023-07-16T22:49:08.139Z,24.56
2023-07-16T22:51:35.452Z,24.54
2023-07-16T22:54:04.119Z,24.54
2023-07-16T22:56:31.316Z,24.52
2023-07-16T22:58:58.419Z,24.45
2023-07-16T23:01:26.101Z,24.41
2023-07-16T23:03:53.227Z,24.34
2023-07-16T23:06:20.356Z,24.27
2023-07-16T23:08:47.493Z,24.19
2023-07-16T23:11:14.874Z,24.11
2023-07-16T23:13:42.071Z,24.05
2023-07-16T23:16:17.167Z,24.00
2023-07-16T23:18:44.320Z,23.97
2023-07-16T23:21:12.313Z,23.94
2023-07-16T23:23:39.373Z,23.91
2023-07-16T23:26:06.450Z,23.91
2023-07-16T23:28:33.715Z,23.90
2023-07-16T23:31:00.961Z,23.83
2023-07-16T23:33:29.220Z,23.76
2023-07-16T23:35:57.314Z,23.73
2023-07-16T23:38:24.432Z,23.68
2023-07-16T23:40:51.502Z,23.65
2023-07-16T23:43:18.559Z,23.62
2023-07-16T23:45:45.614Z,23.59
2023-07-16T23:48:12.666Z,23.58
2023-07-16T23:50:41.670Z,23.57
2023-07-16T23:53:08.765Z,23.55
2023-07-16T23:55:35.870Z,23.53
2023-07-16T23:58:03.143Z,23.52
